createdAt,value
2022-09-12T00:00:39.864Z,11.90
2022-09-12T00:03:06.181Z,11.82
2022-09-12T00:05:33.137Z,11.81
2022-09-12T00:08:00.622Z,11.83
2022-09-12T00:10:27.228Z,11.93
2022-09-12T00:12:53.607Z,11.84
2022-09-12T00:15:20.048Z,11.86
2022-09-12T00:17:46.380Z,11.84
2022-09-12T00:20:12.738Z,11.92
2022-09-12T00:22:39.304Z,11.94
2022-09-12T00:25:06.146Z,11.93
2022-09-12T00:27:32.476Z,11.81
2022-09-12T00:29:58.823Z,11.83
2022-09-12T00:32:25.148Z,11.71
2022-09-12T00:34:51.483Z,11.77
2022-09-12T00:37:17.832Z,11.79
2022-09-12T00:39:44.644Z,11.71
2022-09-12T00:42:12.677Z,11.74
2022-09-12T00:44:38.949Z,11.71
2022-09-12T00:47:27.995Z,11.64
2022-09-12T00:50:11.236Z,11.65
2022-09-12T00:52:51.548Z,11.67
2022-09-12T00:55:41.144Z,11.70
2022-09-12T00:58:16.799Z,11.69
2022-09-12T01:00:43.395Z,11.66
2022-09-12T01:03:14.648Z,11.57
2022-09-12T01:05:47.813Z,11.58
2022-09-12T01:08:14.330Z,11.52
2022-09-12T01:10:42.447Z,11.57
2022-09-12T01:13:10.643Z,11.61
2022-09-12T01:15:39.311Z,11.57
2022-09-12T01:18:12.805Z,11.52
2022-09-12T01:20:57.868Z,11.53
2022-09-12T01:23:42.868Z,11.48
2022-09-12T01:26:38.227Z,11.45
2022-09-12T01:29:10.823Z,11.40
2022-09-12T01:31:42.511Z,11.38
2022-09-12T01:34:20.801Z,11.31
2022-09-12T01:37:01.256Z,11.32
2022-09-12T01:39:40.869Z,11.26
2022-09-12T01:42:26.783Z,11.36
2022-09-12T01:45:31.416Z,11.29
2022-09-12T01:48:21.798Z,11.24
2022-09-12T01:50:56.616Z,11.23
2022-09-12T01:53:29.394Z,11.14
2022-09-12T01:56:08.106Z,11.15
2022-09-12T01:58:46.862Z,11.10
2022-09-12T02:01:19.967Z,11.08
2022-09-12T02:03:53.562Z,11.09
2022-09-12T02:06:28.055Z,11.09
2022-09-12T02:09:07.447Z,11.14
2022-09-12T02:11:38.513Z,11.12
2022-09-12T02:14:16.600Z,11.11
2022-09-12T02:16:49.379Z,11.17
2022-09-12T02:19:19.881Z,11.19
2022-09-12T02:21:55.285Z,11.22
2022-09-12T02:24:24.091Z,11.15
2022-09-12T02:26:56.871Z,11.18
2022-09-12T02:29:23.335Z,11.17
2022-09-12T02:31:57.395Z,11.15
2022-09-12T02:34:40.981Z,11.09
2022-09-12T02:37:32.414Z,11.09
2022-09-12T02:39:59.951Z,11.08
2022-09-12T02:42:27.032Z,11.03
2022-09-12T02:44:55.834Z,11.06
2022-09-12T02:47:46.882Z,11.09
2022-09-12T02:50:13.767Z,11.15
2022-09-12T02:52:42.296Z,11.06
2022-09-12T02:55:11.616Z,10.99
2022-09-12T02:57:38.339Z,10.96
2022-09-12T03:00:06.047Z,10.94
2022-09-12T03:02:51.352Z,10.93
2022-09-12T03:05:41.107Z,10.96
2022-09-12T03:08:23.533Z,11.01
2022-09-12T03:11:16.587Z,11.04
2022-09-12T03:14:02.378Z,10.99
2022-09-12T03:16:55.916Z,10.84
2022-09-12T03:19:48.296Z,10.71
2022-09-12T03:22:36.295Z,10.74
2022-09-12T03:25:35.952Z,10.68
2022-09-12T03:28:08.113Z,10.64
2022-09-12T03:30:43.169Z,10.59
2022-09-12T03:33:14.424Z,10.57
2022-09-12T03:35:41.300Z,10.55
2022-09-12T03:38:08.375Z,10.63
2022-09-12T03:40:35.913Z,10.64
2022-09-12T03:43:03.076Z,10.58
2022-09-12T03:45:29.545Z,10.53
2022-09-12T03:47:55.919Z,10.56
2022-09-12T03:50:22.601Z,10.62
2022-09-12T03:52:49.026Z,10.57
2022-09-12T03:55:16.011Z,10.53
2022-09-12T03:57:42.331Z,10.65
2022-09-12T04:00:09.007Z,10.64
2022-09-12T04:02:35.473Z,10.58
2022-09-12T04:05:01.901Z,10.56
2022-09-12T04:07:28.261Z,10.47
2022-09-12T04:09:54.850Z,10.46
2022-09-12T04:12:21.212Z,10.50
2022-09-12T04:14:48.206Z,10.51
2022-09-12T04:17:14.945Z,10.51
2022-09-12T04:19:41.317Z,10.44
2022-09-12T04:22:07.651Z,10.40
2022-09-12T04:24:34.035Z,10.32
2022-09-12T04:27:02.041Z,10.32
2022-09-12T04:29:31.395Z,10.32
2022-09-12T04:31:57.754Z,10.35
2022-09-12T04:34:24.100Z,10.33
2022-09-12T04:36:50.448Z,10.35
2022-09-12T04:39:16.993Z,10.31
2022-09-12T04:41:43.415Z,10.39
2022-09-12T04:44:14.093Z,10.33
2022-09-12T04:46:44.567Z,10.30
2022-09-12T04:49:12.524Z,10.34
2022-09-12T04:51:40.732Z,10.29
2022-09-12T04:54:12.527Z,10.28
2022-09-12T04:56:40.417Z,10.28
2022-09-12T04:59:08.573Z,10.28
2022-09-12T05:01:35.864Z,10.31
2022-09-12T05:04:03.630Z,10.28
2022-09-12T05:06:34.377Z,10.28
2022-09-12T05:09:01.895Z,10.30
2022-09-12T05:11:53.038Z,10.29
2022-09-12T05:14:17.425Z,10.34
2022-09-12T05:16:48.566Z,10.34
2022-09-12T05:19:15.787Z,10.31
2022-09-12T05:21:42.128Z,10.34
2022-09-12T05:24:11.347Z,10.35
2022-09-12T05:26:37.792Z,10.37
2022-09-12T05:29:06.054Z,10.38
2022-09-12T05:31:32.498Z,10.54
2022-09-12T05:33:58.863Z,10.63
2022-09-12T05:36:27.572Z,10.64
2022-09-12T05:38:54.228Z,10.73
2022-09-12T05:41:30.672Z,10.88
2022-09-12T05:43:59.095Z,10.91
2022-09-12T05:46:28.165Z,10.99
2022-09-12T05:48:56.589Z,11.08
2022-09-12T05:51:27.971Z,11.15
2022-09-12T05:53:58.787Z,11.30
2022-09-12T05:56:27.379Z,11.40
2022-09-12T05:59:03.178Z,11.52
2022-09-12T06:01:31.342Z,11.61
2022-09-12T06:04:00.787Z,11.75
2022-09-12T06:06:29.003Z,11.83
2022-09-12T06:09:03.442Z,12.00
2022-09-12T06:11:32.128Z,12.15
2022-09-12T06:13:59.993Z,12.20
2022-09-12T06:16:29.298Z,12.43
2022-09-12T06:18:59.306Z,12.60
2022-09-12T06:21:26.796Z,12.76
2022-09-12T06:23:55.550Z,12.93
2022-09-12T06:26:23.498Z,13.04
2022-09-12T06:28:50.372Z,13.19
2022-09-12T06:31:21.329Z,13.42
2022-09-12T06:33:50.373Z,13.64
2022-09-12T06:36:22.414Z,13.77
2022-09-12T06:38:57.185Z,13.83
2022-09-12T06:41:25.357Z,14.06
2022-09-12T06:43:51.970Z,14.21
2022-09-12T06:46:18.973Z,14.40
2022-09-12T06:48:45.634Z,14.57
2022-09-12T06:51:14.674Z,14.84
2022-09-12T06:53:42.040Z,15.08
2022-09-12T06:56:21.779Z,15.33
2022-09-12T06:58:50.250Z,15.50
2022-09-12T07:01:17.976Z,15.74
2022-09-12T07:03:48.980Z,15.94
2022-09-12T07:06:17.593Z,16.32
2022-09-12T07:08:44.392Z,16.44
2022-09-12T07:11:13.923Z,16.61
2022-09-12T07:13:41.784Z,16.58
2022-09-12T07:16:10.276Z,16.72
2022-09-12T07:18:40.559Z,16.70
2022-09-12T07:21:10.206Z,16.63
2022-09-12T07:23:36.622Z,16.76
2022-09-12T07:26:03.594Z,16.83
2022-09-12T07:28:32.067Z,16.83
2022-09-12T07:31:04.599Z,16.69
2022-09-12T07:33:31.041Z,16.72
2022-09-12T07:36:05.304Z,16.68
2022-09-12T07:38:32.004Z,16.62
2022-09-12T07:40:58.819Z,16.79
2022-09-12T07:43:25.420Z,16.78
2022-09-12T07:45:56.421Z,16.91
2022-09-12T07:48:23.179Z,16.94
2022-09-12T07:51:00.129Z,16.89
2022-09-12T07:53:30.693Z,17.01
2022-09-12T07:55:57.049Z,16.93
2022-09-12T07:58:24.620Z,16.77
2022-09-12T08:00:51.280Z,16.86
2022-09-12T08:03:18.107Z,16.92
2022-09-12T08:05:44.506Z,16.85
2022-09-12T08:08:10.999Z,16.79
2022-09-12T08:10:37.379Z,16.78
2022-09-12T08:13:03.761Z,16.83
2022-09-12T08:15:31.118Z,16.87
2022-09-12T08:17:57.618Z,16.96
2022-09-12T08:20:28.138Z,17.02
2022-09-12T08:22:54.792Z,17.12
2022-09-12T08:25:21.138Z,17.14
2022-09-12T08:27:48.285Z,17.24
2022-09-12T08:30:14.716Z,17.45
2022-09-12T08:32:41.056Z,17.51
2022-09-12T08:35:07.994Z,17.26
2022-09-12T08:37:34.332Z,17.41
2022-09-12T08:40:00.727Z,17.55
2022-09-12T08:42:51.603Z,17.56
2022-09-12T08:45:34.340Z,17.43
2022-09-12T08:48:04.509Z,17.52
2022-09-12T08:50:32.423Z,17.53
2022-09-12T08:53:03.290Z,17.61
2022-09-12T08:55:43.692Z,17.71
2022-09-12T08:58:14.841Z,17.74
2022-09-12T09:01:20.114Z,17.74
2022-09-12T09:04:12.936Z,17.75
2022-09-12T09:07:14.489Z,17.98
2022-09-12T09:10:03.057Z,17.84
2022-09-12T09:12:40.580Z,17.85
2022-09-12T09:15:37.717Z,17.78
2022-09-12T09:18:13.467Z,17.77
2022-09-12T09:20:52.880Z,17.82
2022-09-12T09:23:25.905Z,17.78
2022-09-12T09:26:04.799Z,17.85
2022-09-12T09:28:52.451Z,17.78
2022-09-12T09:31:21.151Z,17.75
2022-09-12T09:33:56.676Z,17.73
2022-09-12T09:36:31.256Z,17.75
2022-09-12T09:39:06.871Z,17.87
2022-09-12T09:41:42.811Z,17.87
2022-09-12T09:44:09.834Z,17.91
2022-09-12T09:46:36.414Z,17.79
2022-09-12T09:49:04.174Z,17.91
2022-09-12T09:51:39.036Z,17.93
2022-09-12T09:54:21.148Z,17.91
2022-09-12T09:56:47.733Z,17.88
2022-09-12T09:59:14.008Z,17.97
2022-09-12T10:02:04.126Z,18.10
2022-09-12T10:04:40.674Z,18.14
2022-09-12T10:07:18.731Z,18.09
2022-09-12T10:10:06.295Z,18.08
2022-09-12T10:12:33.045Z,18.11
2022-09-12T10:15:16.130Z,18.20
2022-09-12T10:17:46.305Z,18.24
2022-09-12T10:20:39.010Z,18.30
2022-09-12T10:23:37.773Z,18.29
2022-09-12T10:26:16.499Z,18.28
2022-09-12T10:28:54.880Z,18.35
2022-09-12T10:31:35.968Z,18.31
2022-09-12T10:34:02.382Z,18.24
2022-09-12T10:36:39.781Z,18.22
2022-09-12T10:39:07.284Z,18.21
2022-09-12T10:41:40.375Z,18.16
2022-09-12T10:44:24.555Z,18.34
2022-09-12T10:46:50.947Z,18.36
2022-09-12T10:49:27.533Z,18.38
2022-09-12T10:51:55.918Z,18.44
2022-09-12T10:54:26.696Z,18.46
2022-09-12T10:57:23.867Z,18.49
2022-09-12T10:59:58.845Z,18.56
2022-09-12T11:02:31.704Z,18.69
2022-09-12T11:05:25.908Z,18.70
2022-09-12T11:08:10.848Z,18.68
2022-09-12T11:11:07.439Z,18.82
2022-09-12T11:14:03.264Z,18.79
2022-09-12T11:16:42.106Z,18.77
2022-09-12T11:19:51.544Z,18.73
2022-09-12T11:22:43.652Z,18.74
2022-09-12T11:25:22.760Z,18.87
2022-09-12T11:28:15.365Z,18.93
2022-09-12T11:31:03.643Z,18.84
2022-09-12T11:33:45.402Z,18.84
2022-09-12T11:36:21.066Z,18.81
2022-09-12T11:38:52.280Z,18.77
2022-09-12T11:41:31.375Z,18.73
2022-09-12T11:44:22.237Z,18.83
2022-09-12T11:46:51.885Z,18.87
2022-09-12T11:49:35.548Z,18.88
2022-09-12T11:52:15.787Z,19.05
2022-09-12T11:55:06.331Z,19.03
2022-09-12T11:57:56.013Z,19.02
2022-09-12T12:00:32.693Z,19.13
2022-09-12T12:03:24.417Z,19.24
2022-09-12T12:06:08.971Z,19.24
2022-09-12T12:08:41.433Z,19.23
2022-09-12T12:11:09.255Z,19.23
2022-09-12T12:13:43.138Z,19.27
2022-09-12T12:16:24.862Z,19.36
2022-09-12T12:19:00.231Z,19.34
2022-09-12T12:21:29.648Z,19.37
2022-09-12T12:24:08.193Z,19.22
2022-09-12T12:26:40.641Z,19.22
2022-09-12T12:29:11.173Z,19.20
2022-09-12T12:31:59.262Z,19.29
2022-09-12T12:34:31.721Z,19.14
2022-09-12T12:36:59.258Z,19.11
2022-09-12T12:39:31.439Z,19.07
2022-09-12T12:42:02.043Z,19.09
2022-09-12T12:44:47.251Z,19.21
2022-09-12T12:47:25.766Z,19.19
2022-09-12T12:50:05.559Z,19.30
2022-09-12T12:52:46.005Z,19.44
2022-09-12T12:55:22.544Z,19.39
2022-09-12T12:57:51.041Z,19.51
2022-09-12T13:00:20.430Z,19.42
2022-09-12T13:03:34.054Z,19.50
2022-09-12T13:06:07.234Z,19.46
2022-09-12T13:08:36.780Z,19.41
2022-09-12T13:11:08.826Z,19.36
2022-09-12T13:13:47.118Z,19.36
2022-09-12T13:16:38.797Z,19.42
2022-09-12T13:19:18.245Z,19.51
2022-09-12T13:22:02.214Z,19.63
2022-09-12T13:24:29.136Z,19.67
2022-09-12T13:26:57.540Z,19.68
2022-09-12T13:29:26.629Z,19.51
2022-09-12T13:31:56.619Z,19.54
2022-09-12T13:34:27.689Z,19.58
2022-09-12T13:37:13.692Z,19.67
2022-09-12T13:40:16.056Z,19.69
2022-09-12T13:42:49.563Z,19.68
2022-09-12T13:45:20.451Z,19.59
2022-09-12T13:47:50.071Z,19.73
2022-09-12T13:50:26.386Z,19.67
2022-09-12T13:52:57.082Z,19.69
2022-09-12T13:55:33.314Z,19.70
2022-09-12T13:58:24.647Z,19.83
2022-09-12T14:01:07.946Z,19.80
2022-09-12T14:04:08.477Z,19.78
2022-09-12T14:06:49.964Z,19.78
2022-09-12T14:09:25.325Z,19.74
2022-09-12T14:11:52.933Z,19.71
2022-09-12T14:14:31.350Z,19.77
2022-09-12T14:16:58.989Z,19.83
2022-09-12T14:19:26.596Z,19.80
2022-09-12T14:21:53.818Z,19.82
2022-09-12T14:24:23.260Z,19.89
2022-09-12T14:26:52.878Z,19.80
2022-09-12T14:29:20.433Z,19.80
2022-09-12T14:31:46.873Z,19.91
2022-09-12T14:34:16.748Z,20.04
2022-09-12T14:36:48.945Z,19.86
2022-09-12T14:39:39.712Z,19.91
2022-09-12T14:42:21.530Z,20.01
2022-09-12T14:45:09.830Z,19.93
2022-09-12T14:47:42.073Z,19.98
2022-09-12T14:50:21.480Z,19.98
2022-09-12T14:53:06.191Z,19.93
2022-09-12T14:55:35.294Z,19.84
2022-09-12T14:58:26.490Z,19.93
2022-09-12T15:01:22.599Z,19.83
2022-09-12T15:03:53.300Z,19.77
2022-09-12T15:06:25.508Z,19.85
2022-09-12T15:08:54.601Z,19.76
2022-09-12T15:11:21.437Z,19.76
2022-09-12T15:13:48.096Z,19.69
2022-09-12T15:16:15.656Z,19.74
2022-09-12T15:18:42.599Z,19.85
2022-09-12T15:21:13.711Z,19.84
2022-09-12T15:23:45.654Z,19.88
2022-09-12T15:26:15.345Z,19.83
2022-09-12T15:28:41.789Z,19.80
2022-09-12T15:31:19.047Z,19.74
2022-09-12T15:33:45.459Z,19.83
2022-09-12T15:36:18.683Z,19.79
2022-09-12T15:38:45.852Z,19.78
2022-09-12T15:41:16.826Z,19.72
2022-09-12T15:43:43.604Z,19.70
2022-09-12T15:46:12.170Z,19.69
2022-09-12T15:48:39.036Z,19.70
2022-09-12T15:51:12.384Z,19.66
2022-09-12T15:53:42.176Z,19.67
2022-09-12T15:56:08.764Z,19.63
2022-09-12T15:58:35.158Z,19.70
2022-09-12T16:01:02.373Z,19.64
2022-09-12T16:03:29.863Z,19.63
2022-09-12T16:05:58.937Z,19.59
2022-09-12T16:08:25.298Z,19.60
2022-09-12T16:10:58.279Z,19.51
2022-09-12T16:13:25.416Z,19.52
2022-09-12T16:15:56.121Z,19.44
2022-09-12T16:18:22.515Z,19.38
2022-09-12T16:20:53.040Z,19.36
2022-09-12T16:23:19.376Z,19.30
2022-09-12T16:25:46.280Z,19.32
2022-09-12T16:28:12.701Z,19.21
2022-09-12T16:30:39.073Z,19.11
2022-09-12T16:33:05.408Z,19.09
2022-09-12T16:35:32.620Z,18.97
2022-09-12T16:37:58.941Z,19.02
2022-09-12T16:40:25.284Z,18.90
2022-09-12T16:42:51.622Z,18.87
2022-09-12T16:45:18.066Z,18.77
2022-09-12T16:47:44.398Z,18.82
2022-09-12T16:50:11.103Z,18.72
2022-09-12T16:52:37.740Z,18.80
2022-09-12T16:55:04.415Z,18.73
2022-09-12T16:57:30.758Z,18.69
2022-09-12T16:59:57.118Z,18.59
2022-09-12T17:02:23.662Z,18.55
2022-09-12T17:04:50.402Z,18.49
2022-09-12T17:07:16.731Z,18.35
2022-09-12T17:09:46.250Z,18.27
2022-09-12T17:12:14.730Z,18.20
2022-09-12T17:14:41.062Z,18.15
2022-09-12T17:17:07.448Z,18.03
2022-09-12T17:19:33.799Z,17.91
2022-09-12T17:22:00.252Z,17.84
2022-09-12T17:24:26.708Z,17.78
2022-09-12T17:26:53.657Z,17.76
2022-09-12T17:29:20.321Z,17.67
2022-09-12T17:31:46.777Z,17.60
2022-09-12T17:34:17.523Z,17.50
2022-09-12T17:36:45.422Z,17.38
2022-09-12T17:39:13.501Z,17.37
2022-09-12T17:41:42.649Z,17.24
2022-09-12T17:44:11.842Z,17.13
2022-09-12T17:46:39.337Z,17.06
2022-09-12T17:49:08.923Z,16.96
2022-09-12T17:51:36.121Z,16.85
2022-09-12T17:54:06.643Z,16.74
2022-09-12T17:56:34.494Z,16.73
2022-09-12T17:59:01.453Z,16.67
2022-09-12T18:01:49.420Z,16.48
2022-09-12T18:04:16.766Z,16.41
2022-09-12T18:06:47.959Z,16.37
2022-09-12T18:09:17.860Z,16.22
2022-09-12T18:11:44.861Z,16.20
2022-09-12T18:14:14.169Z,16.11
2022-09-12T18:16:41.433Z,16.07
2022-09-12T18:19:08.041Z,15.99
2022-09-12T18:21:34.444Z,15.95
2022-09-12T18:24:01.223Z,15.83
2022-09-12T18:26:28.934Z,15.78
2022-09-12T18:28:56.340Z,15.72
2022-09-12T18:31:25.287Z,15.71
2022-09-12T18:33:52.401Z,15.63
2022-09-12T18:36:19.767Z,15.48
2022-09-12T18:38:47.563Z,15.47
2022-09-12T18:41:16.160Z,15.51
2022-09-12T18:43:43.065Z,15.50
2022-09-12T18:46:12.576Z,15.36
2022-09-12T18:48:39.597Z,15.30
2022-09-12T18:51:17.898Z,15.27
2022-09-12T18:53:56.286Z,15.27
2022-09-12T18:56:27.879Z,15.19
2022-09-12T18:58:56.596Z,15.09
2022-09-12T19:01:28.824Z,15.08
2022-09-12T19:03:56.054Z,15.08
2022-09-12T19:06:29.504Z,15.10
2022-09-12T19:08:57.035Z,15.06
2022-09-12T19:11:25.982Z,14.97
2022-09-12T19:13:53.937Z,14.90
2022-09-12T19:16:26.716Z,14.83
2022-09-12T19:18:55.514Z,14.85
2022-09-12T19:21:24.864Z,14.90
2022-09-12T19:23:52.376Z,14.86
2022-09-12T19:26:20.376Z,14.80
2022-09-12T19:28:47.040Z,14.76
2022-09-12T19:31:15.586Z,14.78
2022-09-12T19:33:42.609Z,14.75
2022-09-12T19:36:27.597Z,14.67
2022-09-12T19:38:59.041Z,14.65
2022-09-12T19:41:26.038Z,14.60
2022-09-12T19:43:52.377Z,14.56
2022-09-12T19:46:21.008Z,14.67
2022-09-12T19:48:47.911Z,14.56
2022-09-12T19:51:16.032Z,14.45
2022-09-12T19:53:43.073Z,14.39
2022-09-12T19:56:11.802Z,14.40
2022-09-12T19:58:40.410Z,14.39
2022-09-12T20:01:15.284Z,14.36
2022-09-12T20:03:42.419Z,14.24
2022-09-12T20:06:14.307Z,14.21
2022-09-12T20:08:42.315Z,14.18
2022-09-12T20:11:09.920Z,14.23
2022-09-12T20:13:36.463Z,14.14
2022-09-12T20:16:07.347Z,14.11
2022-09-12T20:18:34.120Z,14.09
2022-09-12T20:21:11.719Z,14.16
2022-09-12T20:23:38.133Z,14.10
2022-09-12T20:26:04.714Z,14.07
2022-09-12T20:28:31.316Z,14.15
2022-09-12T20:31:02.811Z,14.03
2022-09-12T20:33:29.487Z,14.00
2022-09-12T20:36:10.983Z,14.01
2022-09-12T20:38:37.825Z,14.03
2022-09-12T20:41:06.200Z,14.02
2022-09-12T20:43:32.628Z,13.93
2022-09-12T20:45:59.109Z,13.89
2022-09-12T20:48:25.895Z,13.82
2022-09-12T20:50:52.245Z,13.88
2022-09-12T20:53:18.649Z,14.01
2022-09-12T20:55:52.252Z,13.94
2022-09-12T20:58:20.088Z,13.91
2022-09-12T21:00:46.953Z,13.95
2022-09-12T21:03:14.142Z,13.86
2022-09-12T21:05:42.704Z,13.92
2022-09-12T21:08:10.042Z,13.92
2022-09-12T21:10:36.615Z,13.98
2022-09-12T21:13:03.024Z,13.91
2022-09-12T21:15:29.346Z,13.97
2022-09-12T21:17:55.684Z,13.84
2022-09-12T21:20:22.011Z,13.92
2022-09-12T21:22:48.429Z,13.83
2022-09-12T21:25:14.844Z,13.81
2022-09-12T21:27:41.182Z,13.92
2022-09-12T21:30:07.906Z,13.85
2022-09-12T21:32:35.894Z,13.82
2022-09-12T21:35:03.891Z,13.91
2022-09-12T21:37:30.299Z,13.88
2022-09-12T21:39:57.705Z,13.84
2022-09-12T21:42:24.804Z,13.88
2022-09-12T21:44:51.267Z,13.94
2022-09-12T21:47:17.774Z,13.96
2022-09-12T21:49:44.133Z,13.96
2022-09-12T21:52:12.553Z,13.98
2022-09-12T21:54:39.081Z,13.98
2022-09-12T21:57:05.647Z,14.01
2022-09-12T21:59:32.003Z,14.04
2022-09-12T22:01:58.387Z,13.91
2022-09-12T22:04:25.087Z,13.85
2022-09-12T22:06:51.401Z,13.87
2022-09-12T22:09:17.799Z,13.84
2022-09-12T22:11:44.122Z,13.84
2022-09-12T22:14:10.934Z,13.87
2022-09-12T22:16:37.252Z,13.88
2022-09-12T22:19:03.699Z,13.89
2022-09-12T22:21:30.032Z,13.81
2022-09-12T22:24:14.692Z,13.80
2022-09-12T22:26:43.166Z,13.76
2022-09-12T22:29:11.049Z,13.86
2022-09-12T22:31:37.957Z,13.79
2022-09-12T22:34:04.631Z,13.71
2022-09-12T22:36:31.884Z,13.72
2022-09-12T22:38:59.762Z,13.83
2022-09-12T22:41:26.113Z,13.72
2022-09-12T22:43:52.467Z,13.83
2022-09-12T22:46:18.992Z,13.78
2022-09-12T22:48:45.612Z,13.72
2022-09-12T22:51:11.987Z,13.74
2022-09-12T22:53:38.770Z,13.73
2022-09-12T22:56:05.763Z,13.76
2022-09-12T22:58:33.413Z,13.77
2022-09-12T23:00:59.861Z,13.73
2022-09-12T23:03:26.352Z,13.75
2022-09-12T23:05:52.731Z,13.71
2022-09-12T23:08:19.320Z,13.66
2022-09-12T23:10:46.936Z,13.67
2022-09-12T23:13:13.471Z,13.65
2022-09-12T23:15:39.844Z,13.60
2022-09-12T23:18:06.430Z,13.59
2022-09-12T23:20:32.896Z,13.58
2022-09-12T23:22:59.230Z,13.56
2022-09-12T23:25:26.132Z,13.65
2022-09-12T23:27:52.863Z,13.61
2022-09-12T23:30:21.494Z,13.56
2022-09-12T23:32:49.104Z,13.56
2022-09-12T23:35:19.360Z,13.54
2022-09-12T23:37:46.870Z,13.45
2022-09-12T23:40:13.463Z,13.46
2022-09-12T23:42:39.867Z,13.34
2022-09-12T23:45:06.586Z,13.20
2022-09-12T23:47:32.952Z,13.24
2022-09-12T23:49:59.304Z,13.18
2022-09-12T23:52:25.628Z,13.13
2022-09-12T23:54:51.969Z,12.97
2022-09-12T23:57:18.296Z,13.04
2022-09-12T23:59:44.675Z,12.95
